sensor_id;sensor_type;location;lat;lon;timestamp;temperature;humidity
75134;HTU21D;73631;44.326;40.200;2024-03-29T00:02:00;7.57;53.43
75134;HTU21D;73631;44.326;40.200;2024-03-29T00:04:26;7.72;53.36
75134;HTU21D;73631;44.326;40.200;2024-03-29T00:06:53;7.83;53.27
75134;HTU21D;73631;44.326;40.200;2024-03-29T00:09:19;7.94;53.12
75134;HTU21D;73631;44.326;40.200;2024-03-29T00:11:46;8.03;52.98
75134;HTU21D;73631;44.326;40.200;2024-03-29T00:14:12;8.06;52.89
75134;HTU21D;73631;44.326;40.200;2024-03-29T00:16:38;8.09;52.79
75134;HTU21D;73631;44.326;40.200;2024-03-29T00:19:05;8.16;52.72
75134;HTU21D;73631;44.326;40.200;2024-03-29T00:21:31;8.19;52.70
75134;HTU21D;73631;44.326;40.200;2024-03-29T00:23:57;8.24;52.69
75134;HTU21D;73631;44.326;40.200;2024-03-29T00:26:24;8.34;52.55
75134;HTU21D;73631;44.326;40.200;2024-03-29T00:28:50;8.41;52.46
75134;HTU21D;73631;44.326;40.200;2024-03-29T00:31:16;8.45;52.34
75134;HTU21D;73631;44.326;40.200;2024-03-29T00:33:43;8.48;52.26
75134;HTU21D;73631;44.326;40.200;2024-03-29T00:36:09;8.48;52.14
75134;HTU21D;73631;44.326;40.200;2024-03-29T00:38:36;8.47;52.16
75134;HTU21D;73631;44.326;40.200;2024-03-29T00:41:02;8.45;52.10
75134;HTU21D;73631;44.326;40.200;2024-03-29T00:43:28;8.37;52.03
75134;HTU21D;73631;44.326;40.200;2024-03-29T00:45:55;8.29;52.05
75134;HTU21D;73631;44.326;40.200;2024-03-29T00:48:21;8.22;52.18
75134;HTU21D;73631;44.326;40.200;2024-03-29T00:50:48;8.17;52.21
75134;HTU21D;73631;44.326;40.200;2024-03-29T00:53:14;8.17;52.29
75134;HTU21D;73631;44.326;40.200;2024-03-29T00:55:41;8.18;52.47
75134;HTU21D;73631;44.326;40.200;2024-03-29T00:58:07;8.23;52.53
75134;HTU21D;73631;44.326;40.200;2024-03-29T01:00:34;8.27;52.36
75134;HTU21D;73631;44.326;40.200;2024-03-29T01:03:00;8.30;52.34
75134;HTU21D;73631;44.326;40.200;2024-03-29T01:05:26;8.34;52.33
75134;HTU21D;73631;44.326;40.200;2024-03-29T01:07:53;8.36;52.32
75134;HTU21D;73631;44.326;40.200;2024-03-29T01:10:19;8.41;52.22
75134;HTU21D;73631;44.326;40.200;2024-03-29T01:12:47;8.43;52.19
75134;HTU21D;73631;44.326;40.200;2024-03-29T01:15:14;8.46;52.12
75134;HTU21D;73631;44.326;40.200;2024-03-29T01:17:40;8.49;52.04
75134;HTU21D;73631;44.326;40.200;2024-03-29T01:20:07;8.53;52.00
75134;HTU21D;73631;44.326;40.200;2024-03-29T01:22:34;8.57;51.91
75134;HTU21D;73631;44.326;40.200;2024-03-29T01:25:01;8.59;51.72
75134;HTU21D;73631;44.326;40.200;2024-03-29T01:27:29;8.58;51.66
75134;HTU21D;73631;44.326;40.200;2024-03-29T01:29:55;8.56;51.66
75134;HTU21D;73631;44.326;40.200;2024-03-29T01:32:22;8.56;51.64
75134;HTU21D;73631;44.326;40.200;2024-03-29T01:34:48;8.57;51.65
75134;HTU21D;73631;44.326;40.200;2024-03-29T01:37:15;8.55;51.61
75134;HTU21D;73631;44.326;40.200;2024-03-29T01:39:41;8.52;51.61
75134;HTU21D;73631;44.326;40.200;2024-03-29T01:42:07;8.50;51.58
75134;HTU21D;73631;44.326;40.200;2024-03-29T01:44:34;8.41;51.68
75134;HTU21D;73631;44.326;40.200;2024-03-29T01:47:01;8.34;51.75
75134;HTU21D;73631;44.326;40.200;2024-03-29T01:49:30;8.29;51.78
75134;HTU21D;73631;44.326;40.200;2024-03-29T01:51:57;8.22;51.91
75134;HTU21D;73631;44.326;40.200;2024-03-29T01:54:23;8.17;51.98
75134;HTU21D;73631;44.326;40.200;2024-03-29T01:56:49;8.13;52.10
75134;HTU21D;73631;44.326;40.200;2024-03-29T01:59:17;8.07;52.16
75134;HTU21D;73631;44.326;40.200;2024-03-29T02:01:46;8.02;52.17
75134;HTU21D;73631;44.326;40.200;2024-03-29T02:04:13;7.98;52.31
75134;HTU21D;73631;44.326;40.200;2024-03-29T02:06:39;7.92;52.38
75134;HTU21D;73631;44.326;40.200;2024-03-29T02:09:06;7.88;52.46
75134;HTU21D;73631;44.326;40.200;2024-03-29T02:11:34;7.86;52.53
75134;HTU21D;73631;44.326;40.200;2024-03-29T02:14:03;7.85;52.66
75134;HTU21D;73631;44.326;40.200;2024-03-29T02:16:32;7.85;52.76
75134;HTU21D;73631;44.326;40.200;2024-03-29T02:18:59;7.84;52.76
75134;HTU21D;73631;44.326;40.200;2024-03-29T02:21:25;7.85;52.77
75134;HTU21D;73631;44.326;40.200;2024-03-29T02:24:05;7.89;52.75
75134;HTU21D;73631;44.326;40.200;2024-03-29T02:26:33;7.89;52.87
75134;HTU21D;73631;44.326;40.200;2024-03-29T02:29:02;7.91;52.87
75134;HTU21D;73631;44.326;40.200;2024-03-29T02:31:29;7.91;52.78
75134;HTU21D;73631;44.326;40.200;2024-03-29T02:33:56;7.90;52.77
75134;HTU21D;73631;44.326;40.200;2024-03-29T02:36:22;7.89;52.78
75134;HTU21D;73631;44.326;40.200;2024-03-29T02:38:48;7.87;52.82
75134;HTU21D;73631;44.326;40.200;2024-03-29T02:41:15;7.87;52.94
75134;HTU21D;73631;44.326;40.200;2024-03-29T02:43:41;7.87;52.88
75134;HTU21D;73631;44.326;40.200;2024-03-29T02:46:08;7.84;52.95
75134;HTU21D;73631;44.326;40.200;2024-03-29T02:48:34;7.82;52.98
75134;HTU21D;73631;44.326;40.200;2024-03-29T02:51:01;7.76;52.99
75134;HTU21D;73631;44.326;40.200;2024-03-29T02:53:27;7.71;53.07
75134;HTU21D;73631;44.326;40.200;2024-03-29T02:55:54;7.64;53.15
75134;HTU21D;73631;44.326;40.200;2024-03-29T02:58:20;7.59;53.27
75134;HTU21D;73631;44.326;40.200;2024-03-29T03:00:46;7.57;53.39
75134;HTU21D;73631;44.326;40.200;2024-03-29T03:03:16;7.55;53.39
75134;HTU21D;73631;44.326;40.200;2024-03-29T03:05:43;7.49;53.43
75134;HTU21D;73631;44.326;40.200;2024-03-29T03:08:09;7.45;53.52
75134;HTU21D;73631;44.326;40.200;2024-03-29T03:10:54;7.41;53.52
75134;HTU21D;73631;44.326;40.200;2024-03-29T03:13:28;7.37;53.57
75134;HTU21D;73631;44.326;40.200;2024-03-29T03:15:55;7.32;53.69
75134;HTU21D;73631;44.326;40.200;2024-03-29T03:18:22;7.29;53.78
75134;HTU21D;73631;44.326;40.200;2024-03-29T03:20:52;7.27;53.81
75134;HTU21D;73631;44.326;40.200;2024-03-29T03:23:19;7.25;53.83
75134;HTU21D;73631;44.326;40.200;2024-03-29T03:25:57;7.19;53.80
75134;HTU21D;73631;44.326;40.200;2024-03-29T03:28:24;7.14;54.04
75134;HTU21D;73631;44.326;40.200;2024-03-29T03:30:54;7.14;54.25
75134;HTU21D;73631;44.326;40.200;2024-03-29T03:33:20;7.16;54.26
75134;HTU21D;73631;44.326;40.200;2024-03-29T03:35:47;7.14;54.25
75134;HTU21D;73631;44.326;40.200;2024-03-29T03:38:14;7.10;54.39
75134;HTU21D;73631;44.326;40.200;2024-03-29T03:40:41;7.09;54.45
75134;HTU21D;73631;44.326;40.200;2024-03-29T03:43:09;7.11;54.52
75134;HTU21D;73631;44.326;40.200;2024-03-29T03:45:37;7.12;54.55
75134;HTU21D;73631;44.326;40.200;2024-03-29T03:48:05;7.13;54.58
75134;HTU21D;73631;44.326;40.200;2024-03-29T03:50:31;7.15;54.56
75134;HTU21D;73631;44.326;40.200;2024-03-29T03:52:58;7.14;54.55
75134;HTU21D;73631;44.326;40.200;2024-03-29T03:55:24;7.15;54.62
75134;HTU21D;73631;44.326;40.200;2024-03-29T03:57:51;7.14;54.67
75134;HTU21D;73631;44.326;40.200;2024-03-29T04:00:19;7.16;54.77
75134;HTU21D;73631;44.326;40.200;2024-03-29T04:02:52;7.19;54.63
75134;HTU21D;73631;44.326;40.200;2024-03-29T04:05:19;7.18;54.74
75134;HTU21D;73631;44.326;40.200;2024-03-29T04:07:45;7.20;54.78
75134;HTU21D;73631;44.326;40.200;2024-03-29T04:10:12;7.23;54.83
75134;HTU21D;73631;44.326;40.200;2024-03-29T04:12:39;7.26;54.84
75134;HTU21D;73631;44.326;40.200;2024-03-29T04:15:06;7.29;54.91
75134;HTU21D;73631;44.326;40.200;2024-03-29T04:17:33;7.29;54.91
75134;HTU21D;73631;44.326;40.200;2024-03-29T04:19:59;7.31;55.08
75134;HTU21D;73631;44.326;40.200;2024-03-29T04:22:29;7.34;55.12
75134;HTU21D;73631;44.326;40.200;2024-03-29T04:24:55;7.41;55.17
75134;HTU21D;73631;44.326;40.200;2024-03-29T04:27:22;7.48;55.23
75134;HTU21D;73631;44.326;40.200;2024-03-29T04:29:53;7.57;55.22
75134;HTU21D;73631;44.326;40.200;2024-03-29T04:32:19;7.64;55.27
75134;HTU21D;73631;44.326;40.200;2024-03-29T04:34:47;7.74;55.24
75134;HTU21D;73631;44.326;40.200;2024-03-29T04:37:14;7.84;55.20
75134;HTU21D;73631;44.326;40.200;2024-03-29T04:39:45;7.96;55.16
75134;HTU21D;73631;44.326;40.200;2024-03-29T04:42:12;8.05;55.08
75134;HTU21D;73631;44.326;40.200;2024-03-29T04:44:39;8.18;55.07
75134;HTU21D;73631;44.326;40.200;2024-03-29T04:47:05;8.30;55.04
75134;HTU21D;73631;44.326;40.200;2024-03-29T04:49:32;8.44;55.03
75134;HTU21D;73631;44.326;40.200;2024-03-29T04:52:04;8.60;54.95
75134;HTU21D;73631;44.326;40.200;2024-03-29T04:54:31;8.74;54.72
75134;HTU21D;73631;44.326;40.200;2024-03-29T04:57:01;8.86;54.57
75134;HTU21D;73631;44.326;40.200;2024-03-29T04:59:28;9.00;54.51
75134;HTU21D;73631;44.326;40.200;2024-03-29T05:01:55;9.10;54.51
75134;HTU21D;73631;44.326;40.200;2024-03-29T05:04:23;9.22;54.29
75134;HTU21D;73631;44.326;40.200;2024-03-29T05:06:56;9.33;54.13
75134;HTU21D;73631;44.326;40.200;2024-03-29T05:09:37;9.47;53.94
75134;HTU21D;73631;44.326;40.200;2024-03-29T05:12:04;9.59;53.84
75134;HTU21D;73631;44.326;40.200;2024-03-29T05:14:31;9.70;53.70
75134;HTU21D;73631;44.326;40.200;2024-03-29T05:16:57;9.79;53.49
75134;HTU21D;73631;44.326;40.200;2024-03-29T05:19:24;9.90;53.37
75134;HTU21D;73631;44.326;40.200;2024-03-29T05:21:50;10.01;53.16
75134;HTU21D;73631;44.326;40.200;2024-03-29T05:24:17;10.13;52.97
75134;HTU21D;73631;44.326;40.200;2024-03-29T05:26:43;10.28;52.68
75134;HTU21D;73631;44.326;40.200;2024-03-29T05:29:10;10.43;52.35
75134;HTU21D;73631;44.326;40.200;2024-03-29T05:31:36;10.59;51.97
75134;HTU21D;73631;44.326;40.200;2024-03-29T05:34:03;10.74;51.74
75134;HTU21D;73631;44.326;40.200;2024-03-29T05:36:30;10.89;51.42
75134;HTU21D;73631;44.326;40.200;2024-03-29T05:38:57;11.03;51.14
75134;HTU21D;73631;44.326;40.200;2024-03-29T05:41:23;11.12;50.82
75134;HTU21D;73631;44.326;40.200;2024-03-29T05:43:50;11.24;50.90
75134;HTU21D;73631;44.326;40.200;2024-03-29T05:46:16;11.34;50.42
75134;HTU21D;73631;44.326;40.200;2024-03-29T05:48:44;11.43;50.13
75134;HTU21D;73631;44.326;40.200;2024-03-29T05:51:10;11.53;49.88
75134;HTU21D;73631;44.326;40.200;2024-03-29T05:53:37;11.60;49.60
75134;HTU21D;73631;44.326;40.200;2024-03-29T05:56:05;11.66;49.17
75134;HTU21D;73631;44.326;40.200;2024-03-29T05:58:33;11.75;48.89
75134;HTU21D;73631;44.326;40.200;2024-03-29T06:01:00;11.84;48.89
75134;HTU21D;73631;44.326;40.200;2024-03-29T06:03:27;11.92;48.73
75134;HTU21D;73631;44.326;40.200;2024-03-29T06:06:17;12.02;48.31
75134;HTU21D;73631;44.326;40.200;2024-03-29T06:09:21;12.12;48.18
75134;HTU21D;73631;44.326;40.200;2024-03-29T06:12:02;12.19;48.01
75134;HTU21D;73631;44.326;40.200;2024-03-29T06:15:26;12.28;48.16
75134;HTU21D;73631;44.326;40.200;2024-03-29T06:18:36;12.33;47.97
75134;HTU21D;73631;44.326;40.200;2024-03-29T06:21:09;12.38;47.86
75134;HTU21D;73631;44.326;40.200;2024-03-29T06:23:36;12.45;47.84
75134;HTU21D;73631;44.326;40.200;2024-03-29T06:26:02;12.51;47.57
75134;HTU21D;73631;44.326;40.200;2024-03-29T06:28:28;12.62;46.76
75134;HTU21D;73631;44.326;40.200;2024-03-29T06:30:55;12.73;46.36
75134;HTU21D;73631;44.326;40.200;2024-03-29T06:33:21;12.86;46.49
75134;HTU21D;73631;44.326;40.200;2024-03-29T06:35:54;12.96;46.09
75134;HTU21D;73631;44.326;40.200;2024-03-29T06:41:43;13.18;45.73
75134;HTU21D;73631;44.326;40.200;2024-03-29T06:44:09;13.25;45.66
75134;HTU21D;73631;44.326;40.200;2024-03-29T06:46:39;13.34;45.35
75134;HTU21D;73631;44.326;40.200;2024-03-29T06:49:17;13.45;45.48
75134;HTU21D;73631;44.326;40.200;2024-03-29T06:51:44;13.54;45.25
75134;HTU21D;73631;44.326;40.200;2024-03-29T06:54:10;13.65;45.10
75134;HTU21D;73631;44.326;40.200;2024-03-29T06:56:37;13.76;44.77
75134;HTU21D;73631;44.326;40.200;2024-03-29T06:59:04;13.85;44.68
75134;HTU21D;73631;44.326;40.200;2024-03-29T07:01:31;13.94;44.51
75134;HTU21D;73631;44.326;40.200;2024-03-29T07:03:59;14.04;44.35
75134;HTU21D;73631;44.326;40.200;2024-03-29T07:06:26;14.14;44.40
75134;HTU21D;73631;44.326;40.200;2024-03-29T07:08:52;14.24;44.28
75134;HTU21D;73631;44.326;40.200;2024-03-29T07:11:18;14.32;44.42
75134;HTU21D;73631;44.326;40.200;2024-03-29T07:13:45;14.44;44.28
75134;HTU21D;73631;44.326;40.200;2024-03-29T07:16:11;14.55;44.29
75134;HTU21D;73631;44.326;40.200;2024-03-29T07:18:37;14.69;44.09
75134;HTU21D;73631;44.326;40.200;2024-03-29T07:21:04;14.79;43.87
75134;HTU21D;73631;44.326;40.200;2024-03-29T07:23:33;14.88;43.74
75134;HTU21D;73631;44.326;40.200;2024-03-29T07:26:05;14.96;43.50
75134;HTU21D;73631;44.326;40.200;2024-03-29T07:28:31;15.00;43.44
75134;HTU21D;73631;44.326;40.200;2024-03-29T07:31:05;15.09;43.39
75134;HTU21D;73631;44.326;40.200;2024-03-29T07:33:33;15.17;43.22
75134;HTU21D;73631;44.326;40.200;2024-03-29T07:36:00;15.26;43.15
75134;HTU21D;73631;44.326;40.200;2024-03-29T07:38:26;15.36;43.13
75134;HTU21D;73631;44.326;40.200;2024-03-29T07:40:53;15.47;42.77
75134;HTU21D;73631;44.326;40.200;2024-03-29T07:43:21;15.60;42.55
75134;HTU21D;73631;44.326;40.200;2024-03-29T07:45:49;15.69;42.48
75134;HTU21D;73631;44.326;40.200;2024-03-29T07:48:20;15.81;42.47
75134;HTU21D;73631;44.326;40.200;2024-03-29T07:50:49;15.93;42.42
75134;HTU21D;73631;44.326;40.200;2024-03-29T07:53:22;16.08;42.12
75134;HTU21D;73631;44.326;40.200;2024-03-29T07:55:49;16.17;41.80
75134;HTU21D;73631;44.326;40.200;2024-03-29T07:58:16;16.26;41.69
75134;HTU21D;73631;44.326;40.200;2024-03-29T08:00:43;16.34;41.48
75134;HTU21D;73631;44.326;40.200;2024-03-29T08:03:10;16.44;41.33
75134;HTU21D;73631;44.326;40.200;2024-03-29T08:05:37;16.51;41.14
75134;HTU21D;73631;44.326;40.200;2024-03-29T08:08:03;16.62;41.04
75134;HTU21D;73631;44.326;40.200;2024-03-29T08:10:30;16.73;40.91
75134;HTU21D;73631;44.326;40.200;2024-03-29T08:12:57;16.82;40.65
75134;HTU21D;73631;44.326;40.200;2024-03-29T08:15:23;16.92;40.52
75134;HTU21D;73631;44.326;40.200;2024-03-29T08:17:50;17.04;40.36
75134;HTU21D;73631;44.326;40.200;2024-03-29T08:20:17;17.19;40.22
75134;HTU21D;73631;44.326;40.200;2024-03-29T08:22:47;17.33;40.11
75134;HTU21D;73631;44.326;40.200;2024-03-29T08:25:14;17.47;39.80
75134;HTU21D;73631;44.326;40.200;2024-03-29T08:27:41;17.61;39.56
75134;HTU21D;73631;44.326;40.200;2024-03-29T08:30:07;17.74;39.42
75134;HTU21D;73631;44.326;40.200;2024-03-29T08:32:35;17.81;39.15
75134;HTU21D;73631;44.326;40.200;2024-03-29T08:35:01;17.91;38.94
75134;HTU21D;73631;44.326;40.200;2024-03-29T08:37:28;17.98;38.77
75134;HTU21D;73631;44.326;40.200;2024-03-29T08:39:59;18.07;38.62
75134;HTU21D;73631;44.326;40.200;2024-03-29T08:42:26;18.13;38.48
75134;HTU21D;73631;44.326;40.200;2024-03-29T08:44:52;18.20;38.46
75134;HTU21D;73631;44.326;40.200;2024-03-29T08:47:19;18.26;38.57
75134;HTU21D;73631;44.326;40.200;2024-03-29T08:49:45;18.32;38.34
75134;HTU21D;73631;44.326;40.200;2024-03-29T08:52:12;18.43;38.22
75134;HTU21D;73631;44.326;40.200;2024-03-29T08:54:38;18.51;38.12
75134;HTU21D;73631;44.326;40.200;2024-03-29T08:57:05;18.61;38.17
75134;HTU21D;73631;44.326;40.200;2024-03-29T08:59:31;18.71;38.02
75134;HTU21D;73631;44.326;40.200;2024-03-29T09:02:04;18.84;38.11
75134;HTU21D;73631;44.326;40.200;2024-03-29T09:04:32;18.96;37.88
75134;HTU21D;73631;44.326;40.200;2024-03-29T09:07:02;19.08;37.91
75134;HTU21D;73631;44.326;40.200;2024-03-29T09:09:31;19.18;37.70
75134;HTU21D;73631;44.326;40.200;2024-03-29T09:11:58;19.29;37.40
75134;HTU21D;73631;44.326;40.200;2024-03-29T09:14:26;19.38;37.26
75134;HTU21D;73631;44.326;40.200;2024-03-29T09:16:53;19.46;37.18
75134;HTU21D;73631;44.326;40.200;2024-03-29T09:19:19;19.58;36.97
75134;HTU21D;73631;44.326;40.200;2024-03-29T09:21:46;19.73;36.73
75134;HTU21D;73631;44.326;40.200;2024-03-29T09:24:12;19.89;36.61
75134;HTU21D;73631;44.326;40.200;2024-03-29T09:26:39;20.03;36.56
75134;HTU21D;73631;44.326;40.200;2024-03-29T09:29:06;20.19;36.03
75134;HTU21D;73631;44.326;40.200;2024-03-29T09:31:33;20.32;35.75
75134;HTU21D;73631;44.326;40.200;2024-03-29T09:34:00;20.43;35.58
75134;HTU21D;73631;44.326;40.200;2024-03-29T09:36:26;20.53;35.25
75134;HTU21D;73631;44.326;40.200;2024-03-29T09:38:53;20.56;35.03
75134;HTU21D;73631;44.326;40.200;2024-03-29T09:41:19;20.62;34.91
75134;HTU21D;73631;44.326;40.200;2024-03-29T09:43:47;20.71;34.60
75134;HTU21D;73631;44.326;40.200;2024-03-29T09:46:20;20.76;34.79
75134;HTU21D;73631;44.326;40.200;2024-03-29T09:49:06;20.80;34.50
75134;HTU21D;73631;44.326;40.200;2024-03-29T09:51:34;20.80;34.44
75134;HTU21D;73631;44.326;40.200;2024-03-29T09:54:04;20.84;34.50
75134;HTU21D;73631;44.326;40.200;2024-03-29T09:56:34;20.86;34.18
75134;HTU21D;73631;44.326;40.200;2024-03-29T09:59:01;20.96;34.25
75134;HTU21D;73631;44.326;40.200;2024-03-29T10:01:30;21.08;33.91
75134;HTU21D;73631;44.326;40.200;2024-03-29T10:04:15;21.13;33.63
75134;HTU21D;73631;44.326;40.200;2024-03-29T10:06:58;21.10;33.54
75134;HTU21D;73631;44.326;40.200;2024-03-29T10:09:25;21.05;33.22
75134;HTU21D;73631;44.326;40.200;2024-03-29T10:11:55;21.02;33.13
75134;HTU21D;73631;44.326;40.200;2024-03-29T10:14:21;20.98;33.10
75134;HTU21D;73631;44.326;40.200;2024-03-29T10:16:51;20.90;33.09
75134;HTU21D;73631;44.326;40.200;2024-03-29T10:19:19;20.80;32.78
75134;HTU21D;73631;44.326;40.200;2024-03-29T10:21:46;20.71;32.64
75134;HTU21D;73631;44.326;40.200;2024-03-29T10:24:13;20.64;32.70
75134;HTU21D;73631;44.326;40.200;2024-03-29T10:26:42;20.59;32.50
75134;HTU21D;73631;44.326;40.200;2024-03-29T10:29:08;20.54;32.49
75134;HTU21D;73631;44.326;40.200;2024-03-29T10:31:35;20.48;32.51
75134;HTU21D;73631;44.326;40.200;2024-03-29T10:34:03;20.42;32.48
75134;HTU21D;73631;44.326;40.200;2024-03-29T10:36:32;20.37;32.58
75134;HTU21D;73631;44.326;40.200;2024-03-29T10:39:11;20.32;32.86
75134;HTU21D;73631;44.326;40.200;2024-03-29T10:41:42;20.30;32.91
75134;HTU21D;73631;44.326;40.200;2024-03-29T10:44:13;20.30;32.99
75134;HTU21D;73631;44.326;40.200;2024-03-29T10:46:41;20.31;32.86
75134;HTU21D;73631;44.326;40.200;2024-03-29T10:49:09;20.30;32.89
75134;HTU21D;73631;44.326;40.200;2024-03-29T10:51:41;20.30;32.89
75134;HTU21D;73631;44.326;40.200;2024-03-29T10:54:11;20.31;32.80
75134;HTU21D;73631;44.326;40.200;2024-03-29T10:56:47;20.32;32.74
75134;HTU21D;73631;44.326;40.200;2024-03-29T10:59:22;20.32;32.72
75134;HTU21D;73631;44.326;40.200;2024-03-29T11:02:00;20.29;32.80
75134;HTU21D;73631;44.326;40.200;2024-03-29T11:04:34;20.21;33.93
75134;HTU21D;73631;44.326;40.200;2024-03-29T11:07:07;20.14;33.22
75134;HTU21D;73631;44.326;40.200;2024-03-29T11:09:47;20.05;33.30
75134;HTU21D;73631;44.326;40.200;2024-03-29T11:12:17;19.99;33.45
75134;HTU21D;73631;44.326;40.200;2024-03-29T11:14:51;19.95;33.41
75134;HTU21D;73631;44.326;40.200;2024-03-29T11:17:22;19.91;33.30
75134;HTU21D;73631;44.326;40.200;2024-03-29T11:19:49;19.91;33.31
75134;HTU21D;73631;44.326;40.200;2024-03-29T11:22:16;19.87;33.28
75134;HTU21D;73631;44.326;40.200;2024-03-29T11:24:43;19.87;33.28
75134;HTU21D;73631;44.326;40.200;2024-03-29T11:27:10;19.85;33.26
75134;HTU21D;73631;44.326;40.200;2024-03-29T11:29:41;19.84;33.26
75134;HTU21D;73631;44.326;40.200;2024-03-29T11:32:09;19.81;33.18
75134;HTU21D;73631;44.326;40.200;2024-03-29T11:34:43;19.79;33.11
75134;HTU21D;73631;44.326;40.200;2024-03-29T11:37:14;19.76;33.17
75134;HTU21D;73631;44.326;40.200;2024-03-29T11:39:47;19.72;33.22
75134;HTU21D;73631;44.326;40.200;2024-03-29T11:42:14;19.71;33.28
75134;HTU21D;73631;44.326;40.200;2024-03-29T11:44:40;19.70;33.32
75134;HTU21D;73631;44.326;40.200;2024-03-29T11:47:08;19.70;33.33
75134;HTU21D;73631;44.326;40.200;2024-03-29T11:49:35;19.69;33.47
75134;HTU21D;73631;44.326;40.200;2024-03-29T11:52:05;19.68;33.57
75134;HTU21D;73631;44.326;40.200;2024-03-29T11:54:39;19.63;33.73
75134;HTU21D;73631;44.326;40.200;2024-03-29T11:57:05;19.61;33.69
75134;HTU21D;73631;44.326;40.200;2024-03-29T11:59:31;19.60;33.93
75134;HTU21D;73631;44.326;40.200;2024-03-29T12:01:58;19.58;33.99
75134;HTU21D;73631;44.326;40.200;2024-03-29T12:04:24;19.55;34.16
75134;HTU21D;73631;44.326;40.200;2024-03-29T12:06:51;19.54;34.18
75134;HTU21D;73631;44.326;40.200;2024-03-29T12:09:17;19.52;34.35
75134;HTU21D;73631;44.326;40.200;2024-03-29T12:11:45;19.50;34.44
75134;HTU21D;73631;44.326;40.200;2024-03-29T12:14:16;19.48;34.53
75134;HTU21D;73631;44.326;40.200;2024-03-29T12:16:43;19.48;34.78
75134;HTU21D;73631;44.326;40.200;2024-03-29T12:19:10;19.47;34.82
75134;HTU21D;73631;44.326;40.200;2024-03-29T12:21:37;19.45;34.82
75134;HTU21D;73631;44.326;40.200;2024-03-29T12:24:03;19.44;34.98
75134;HTU21D;73631;44.326;40.200;2024-03-29T12:26:30;19.43;34.86
75134;HTU21D;73631;44.326;40.200;2024-03-29T12:28:57;19.39;34.94
75134;HTU21D;73631;44.326;40.200;2024-03-29T12:31:24;19.35;35.02
75134;HTU21D;73631;44.326;40.200;2024-03-29T12:33:51;19.29;34.91
75134;HTU21D;73631;44.326;40.200;2024-03-29T12:36:23;19.24;35.06
75134;HTU21D;73631;44.326;40.200;2024-03-29T12:38:49;19.18;35.02
75134;HTU21D;73631;44.326;40.200;2024-03-29T12:41:18;19.15;35.14
75134;HTU21D;73631;44.326;40.200;2024-03-29T12:43:45;19.11;34.93
75134;HTU21D;73631;44.326;40.200;2024-03-29T12:46:11;19.07;35.11
75134;HTU21D;73631;44.326;40.200;2024-03-29T12:48:38;19.02;35.19
75134;HTU21D;73631;44.326;40.200;2024-03-29T12:51:06;19.01;35.31
75134;HTU21D;73631;44.326;40.200;2024-03-29T12:53:33;18.99;35.37
75134;HTU21D;73631;44.326;40.200;2024-03-29T12:55:59;18.98;35.43
75134;HTU21D;73631;44.326;40.200;2024-03-29T12:58:26;18.97;35.73
75134;HTU21D;73631;44.326;40.200;2024-03-29T13:00:52;18.92;35.94
75134;HTU21D;73631;44.326;40.200;2024-03-29T13:03:20;18.88;36.04
75134;HTU21D;73631;44.326;40.200;2024-03-29T13:05:46;18.83;36.15
75134;HTU21D;73631;44.326;40.200;2024-03-29T13:08:14;18.79;36.35
75134;HTU21D;73631;44.326;40.200;2024-03-29T13:10:44;18.71;36.56
75134;HTU21D;73631;44.326;40.200;2024-03-29T13:13:11;18.66;36.77
75134;HTU21D;73631;44.326;40.200;2024-03-29T13:15:39;18.61;37.04
75134;HTU21D;73631;44.326;40.200;2024-03-29T13:18:07;18.56;37.23
75134;HTU21D;73631;44.326;40.200;2024-03-29T13:20:36;18.51;37.36
75134;HTU21D;73631;44.326;40.200;2024-03-29T13:23:08;18.47;37.48
75134;HTU21D;73631;44.326;40.200;2024-03-29T13:25:56;18.41;37.69
75134;HTU21D;73631;44.326;40.200;2024-03-29T13:28:23;18.37;37.85
75134;HTU21D;73631;44.326;40.200;2024-03-29T13:30:50;18.35;38.06
75134;HTU21D;73631;44.326;40.200;2024-03-29T13:33:17;18.29;38.10
75134;HTU21D;73631;44.326;40.200;2024-03-29T13:35:44;18.25;38.40
75134;HTU21D;73631;44.326;40.200;2024-03-29T13:38:12;18.23;38.51
75134;HTU21D;73631;44.326;40.200;2024-03-29T13:40:38;18.19;38.67
75134;HTU21D;73631;44.326;40.200;2024-03-29T13:43:06;18.15;38.73
75134;HTU21D;73631;44.326;40.200;2024-03-29T13:45:34;18.11;38.75
75134;HTU21D;73631;44.326;40.200;2024-03-29T13:48:01;18.05;38.94
75134;HTU21D;73631;44.326;40.200;2024-03-29T13:50:28;17.99;39.07
75134;HTU21D;73631;44.326;40.200;2024-03-29T13:52:54;17.97;39.23
75134;HTU21D;73631;44.326;40.200;2024-03-29T13:55:21;17.93;39.24
75134;HTU21D;73631;44.326;40.200;2024-03-29T13:57:47;17.92;39.17
75134;HTU21D;73631;44.326;40.200;2024-03-29T14:00:14;17.89;39.17
75134;HTU21D;73631;44.326;40.200;2024-03-29T14:02:42;17.85;39.15
75134;HTU21D;73631;44.326;40.200;2024-03-29T14:05:09;17.84;39.13
75134;HTU21D;73631;44.326;40.200;2024-03-29T14:07:36;17.81;39.17
75134;HTU21D;73631;44.326;40.200;2024-03-29T14:10:02;17.80;39.27
75134;HTU21D;73631;44.326;40.200;2024-03-29T14:12:30;17.79;39.34
75134;HTU21D;73631;44.326;40.200;2024-03-29T14:14:57;17.78;39.34
75134;HTU21D;73631;44.326;40.200;2024-03-29T14:17:23;17.77;39.56
75134;HTU21D;73631;44.326;40.200;2024-03-29T14:19:50;17.76;39.58
75134;HTU21D;73631;44.326;40.200;2024-03-29T14:22:17;17.73;39.64
75134;HTU21D;73631;44.326;40.200;2024-03-29T14:24:47;17.70;39.78
75134;HTU21D;73631;44.326;40.200;2024-03-29T14:27:14;17.67;39.97
75134;HTU21D;73631;44.326;40.200;2024-03-29T14:29:40;17.64;40.01
75134;HTU21D;73631;44.326;40.200;2024-03-29T14:32:07;17.63;40.15
75134;HTU21D;73631;44.326;40.200;2024-03-29T14:34:33;17.61;40.20
75134;HTU21D;73631;44.326;40.200;2024-03-29T14:37:04;17.58;40.52
75134;HTU21D;73631;44.326;40.200;2024-03-29T14:39:31;17.52;40.81
75134;HTU21D;73631;44.326;40.200;2024-03-29T14:41:58;17.49;41.15
75134;HTU21D;73631;44.326;40.200;2024-03-29T14:44:25;17.43;41.68
75134;HTU21D;73631;44.326;40.200;2024-03-29T14:46:51;17.33;42.33
75134;HTU21D;73631;44.326;40.200;2024-03-29T14:49:18;17.23;42.58
75134;HTU21D;73631;44.326;40.200;2024-03-29T14:51:45;17.14;43.00
75134;HTU21D;73631;44.326;40.200;2024-03-29T14:54:11;17.03;43.07
75134;HTU21D;73631;44.326;40.200;2024-03-29T14:56:38;16.92;43.33
75134;HTU21D;73631;44.326;40.200;2024-03-29T14:59:05;16.86;43.72
75134;HTU21D;73631;44.326;40.200;2024-03-29T15:01:32;16.79;44.25
75134;HTU21D;73631;44.326;40.200;2024-03-29T15:03:59;16.72;44.88
75134;HTU21D;73631;44.326;40.200;2024-03-29T15:06:25;16.63;45.25
75134;HTU21D;73631;44.326;40.200;2024-03-29T15:08:54;16.55;45.38
75134;HTU21D;73631;44.326;40.200;2024-03-29T15:11:20;16.45;45.80
75134;HTU21D;73631;44.326;40.200;2024-03-29T15:13:48;16.36;46.02
75134;HTU21D;73631;44.326;40.200;2024-03-29T15:16:17;16.29;46.27
75134;HTU21D;73631;44.326;40.200;2024-03-29T15:18:44;16.22;46.08